sensor_id;sensor_type;location;lat;lon;timestamp;P1;durP1;ratioP1;P2;durP2;ratioP2
21334;SDS011;69435;52.670;13.544;2023-06-01T00:02:09;4.40;;;2.10;;
21334;SDS011;69435;52.670;13.544;2023-06-01T00:04:37;3.30;;;1.90;;
21334;SDS011;69435;52.670;13.544;2023-06-01T00:07:09;1.67;;;1.57;;
21334;SDS011;69435;52.670;13.544;2023-06-01T00:09:35;3.60;;;1.70;;
21334;SDS011;69435;52.670;13.544;2023-06-01T00:12:02;1.77;;;1.67;;
21334;SDS011;69435;52.670;13.544;2023-06-01T00:14:30;4.40;;;2.03;;
21334;SDS011;69435;52.670;13.544;2023-06-01T00:16:56;2.70;;;1.67;;
21334;SDS011;69435;52.670;13.544;2023-06-01T00:19:22;2.27;;;2.07;;
21334;SDS011;69435;52.670;13.544;2023-06-01T00:21:53;1.93;;;1.83;;
21334;SDS011;69435;52.670;13.544;2023-06-01T00:24:21;3.77;;;1.80;;
21334;SDS011;69435;52.670;13.544;2023-06-01T00:26:47;2.40;;;1.90;;
21334;SDS011;69435;52.670;13.544;2023-06-01T00:29:13;1.90;;;1.80;;
21334;SDS011;69435;52.670;13.544;2023-06-01T00:31:39;2.87;;;2.00;;
21334;SDS011;69435;52.670;13.544;2023-06-01T00:34:05;1.80;;;1.70;;
21334;SDS011;69435;52.670;13.544;2023-06-01T00:36:32;1.90;;;1.80;;
21334;SDS011;69435;52.670;13.544;2023-06-01T00:38:59;3.10;;;2.00;;
21334;SDS011;69435;52.670;13.544;2023-06-01T00:41:31;1.70;;;1.60;;
21334;SDS011;69435;52.670;13.544;2023-06-01T00:43:58;2.20;;;2.00;;
21334;SDS011;69435;52.670;13.544;2023-06-01T00:46:24;2.83;;;2.20;;
21334;SDS011;69435;52.670;13.544;2023-06-01T00:48:51;2.47;;;2.17;;
21334;SDS011;69435;52.670;13.544;2023-06-01T00:51:17;2.03;;;1.90;;
21334;SDS011;69435;52.670;13.544;2023-06-01T00:53:44;1.80;;;1.70;;
21334;SDS011;69435;52.670;13.544;2023-06-01T00:56:10;2.93;;;2.10;;
21334;SDS011;69435;52.670;13.544;2023-06-01T00:58:39;2.10;;;1.97;;
21334;SDS011;69435;52.670;13.544;2023-06-01T01:01:06;2.80;;;2.10;;
21334;SDS011;69435;52.670;13.544;2023-06-01T01:03:33;7.23;;;2.23;;
21334;SDS011;69435;52.670;13.544;2023-06-01T01:06:07;2.63;;;2.00;;
21334;SDS011;69435;52.670;13.544;2023-06-01T01:09:00;4.13;;;1.90;;
21334;SDS011;69435;52.670;13.544;2023-06-01T01:11:39;3.67;;;1.90;;
21334;SDS011;69435;52.670;13.544;2023-06-01T01:14:14;2.70;;;1.80;;
21334;SDS011;69435;52.670;13.544;2023-06-01T01:17:36;3.03;;;2.00;;
21334;SDS011;69435;52.670;13.544;2023-06-01T01:20:14;2.40;;;2.20;;
21334;SDS011;69435;52.670;13.544;2023-06-01T01:23:05;2.80;;;2.23;;
21334;SDS011;69435;52.670;13.544;2023-06-01T01:29:09;2.10;;;2.00;;
21334;SDS011;69435;52.670;13.544;2023-06-01T01:31:38;3.00;;;2.20;;
21334;SDS011;69435;52.670;13.544;2023-06-01T01:34:05;2.90;;;2.10;;
21334;SDS011;69435;52.670;13.544;2023-06-01T01:36:33;2.83;;;2.10;;
21334;SDS011;69435;52.670;13.544;2023-06-01T01:39:01;2.20;;;2.00;;
21334;SDS011;69435;52.670;13.544;2023-06-01T01:41:28;2.40;;;1.87;;
21334;SDS011;69435;52.670;13.544;2023-06-01T01:43:54;2.87;;;2.30;;
21334;SDS011;69435;52.670;13.544;2023-06-01T01:46:26;2.30;;;2.10;;
21334;SDS011;69435;52.670;13.544;2023-06-01T01:49:04;3.70;;;2.10;;
21334;SDS011;69435;52.670;13.544;2023-06-01T01:54:40;2.30;;;2.10;;
21334;SDS011;69435;52.670;13.544;2023-06-01T01:57:08;2.37;;;2.10;;
21334;SDS011;69435;52.670;13.544;2023-06-01T01:59:37;2.17;;;2.07;;
21334;SDS011;69435;52.670;13.544;2023-06-01T02:02:05;3.07;;;2.30;;
21334;SDS011;69435;52.670;13.544;2023-06-01T02:04:31;2.03;;;1.87;;
21334;SDS011;69435;52.670;13.544;2023-06-01T02:06:57;2.07;;;1.97;;
21334;SDS011;69435;52.670;13.544;2023-06-01T02:09:23;2.30;;;1.63;;
21334;SDS011;69435;52.670;13.544;2023-06-01T02:11:48;3.97;;;1.70;;
21334;SDS011;69435;52.670;13.544;2023-06-01T02:14:14;2.23;;;2.03;;
21334;SDS011;69435;52.670;13.544;2023-06-01T02:16:40;2.23;;;2.00;;
21334;SDS011;69435;52.670;13.544;2023-06-01T02:19:06;3.07;;;2.20;;
21334;SDS011;69435;52.670;13.544;2023-06-01T02:21:36;2.40;;;2.20;;
21334;SDS011;69435;52.670;13.544;2023-06-01T02:24:02;3.63;;;2.23;;
21334;SDS011;69435;52.670;13.544;2023-06-01T02:26:33;3.83;;;2.40;;
21334;SDS011;69435;52.670;13.544;2023-06-01T02:29:00;2.47;;;2.27;;
21334;SDS011;69435;52.670;13.544;2023-06-01T02:31:36;3.63;;;2.30;;
21334;SDS011;69435;52.670;13.544;2023-06-01T02:34:02;3.50;;;2.37;;
21334;SDS011;69435;52.670;13.544;2023-06-01T02:36:28;3.23;;;2.30;;
21334;SDS011;69435;52.670;13.544;2023-06-01T02:38:57;5.27;;;2.27;;
21334;SDS011;69435;52.670;13.544;2023-06-01T02:41:24;3.27;;;2.47;;
21334;SDS011;69435;52.670;13.544;2023-06-01T02:43:50;3.80;;;2.00;;
21334;SDS011;69435;52.670;13.544;2023-06-01T02:46:17;2.63;;;2.07;;
21334;SDS011;69435;52.670;13.544;2023-06-01T02:48:43;2.33;;;2.13;;
21334;SDS011;69435;52.670;13.544;2023-06-01T02:51:11;4.33;;;2.60;;
21334;SDS011;69435;52.670;13.544;2023-06-01T02:53:40;2.50;;;2.30;;
21334;SDS011;69435;52.670;13.544;2023-06-01T02:56:07;3.10;;;2.53;;
21334;SDS011;69435;52.670;13.544;2023-06-01T02:58:33;3.03;;;2.83;;
21334;SDS011;69435;52.670;13.544;2023-06-01T03:00:59;4.03;;;2.40;;
21334;SDS011;69435;52.670;13.544;2023-06-01T03:03:25;3.60;;;3.07;;
21334;SDS011;69435;52.670;13.544;2023-06-01T03:05:52;4.50;;;3.37;;
21334;SDS011;69435;52.670;13.544;2023-06-01T03:08:18;5.57;;;3.00;;
21334;SDS011;69435;52.670;13.544;2023-06-01T03:10:44;5.77;;;2.90;;
21334;SDS011;69435;52.670;13.544;2023-06-01T03:13:12;6.77;;;2.80;;
21334;SDS011;69435;52.670;13.544;2023-06-01T03:15:38;9.97;;;3.73;;
21334;SDS011;69435;52.670;13.544;2023-06-01T03:18:04;3.63;;;2.67;;
21334;SDS011;69435;52.670;13.544;2023-06-01T03:20:36;4.10;;;2.90;;
21334;SDS011;69435;52.670;13.544;2023-06-01T03:23:02;4.40;;;2.90;;
21334;SDS011;69435;52.670;13.544;2023-06-01T03:25:28;6.77;;;2.87;;
21334;SDS011;69435;52.670;13.544;2023-06-01T03:27:54;4.40;;;2.60;;
21334;SDS011;69435;52.670;13.544;2023-06-01T03:30:20;6.23;;;3.03;;
21334;SDS011;69435;52.670;13.544;2023-06-01T03:32:48;5.13;;;3.10;;
21334;SDS011;69435;52.670;13.544;2023-06-01T03:35:14;4.20;;;3.37;;
21334;SDS011;69435;52.670;13.544;2023-06-01T03:37:41;2.70;;;2.50;;
21334;SDS011;69435;52.670;13.544;2023-06-01T03:40:09;3.23;;;2.87;;
21334;SDS011;69435;52.670;13.544;2023-06-01T03:42:45;4.30;;;3.00;;
21334;SDS011;69435;52.670;13.544;2023-06-01T03:45:13;7.27;;;3.43;;
21334;SDS011;69435;52.670;13.544;2023-06-01T03:47:43;3.83;;;3.10;;
21334;SDS011;69435;52.670;13.544;2023-06-01T03:50:09;6.30;;;3.73;;
21334;SDS011;69435;52.670;13.544;2023-06-01T03:52:36;5.27;;;3.30;;
21334;SDS011;69435;52.670;13.544;2023-06-01T03:55:03;3.87;;;3.43;;
21334;SDS011;69435;52.670;13.544;2023-06-01T03:57:34;6.30;;;3.97;;
21334;SDS011;69435;52.670;13.544;2023-06-01T04:00:01;6.37;;;4.20;;
21334;SDS011;69435;52.670;13.544;2023-06-01T04:02:34;6.00;;;4.07;;
21334;SDS011;69435;52.670;13.544;2023-06-01T04:05:00;5.83;;;4.10;;
21334;SDS011;69435;52.670;13.544;2023-06-01T04:07:26;8.23;;;4.10;;
21334;SDS011;69435;52.670;13.544;2023-06-01T04:09:52;6.13;;;3.77;;
21334;SDS011;69435;52.670;13.544;2023-06-01T04:12:18;6.60;;;4.27;;
21334;SDS011;69435;52.670;13.544;2023-06-01T04:14:44;10.70;;;4.50;;
21334;SDS011;69435;52.670;13.544;2023-06-01T04:17:10;5.97;;;4.30;;
21334;SDS011;69435;52.670;13.544;2023-06-01T04:19:37;7.47;;;4.60;;
21334;SDS011;69435;52.670;13.544;2023-06-01T04:22:04;7.30;;;4.60;;
21334;SDS011;69435;52.670;13.544;2023-06-01T04:24:29;12.37;;;5.30;;
21334;SDS011;69435;52.670;13.544;2023-06-01T04:26:55;9.87;;;5.10;;
21334;SDS011;69435;52.670;13.544;2023-06-01T04:29:21;5.63;;;4.97;;
21334;SDS011;69435;52.670;13.544;2023-06-01T04:31:47;8.13;;;5.23;;
21334;SDS011;69435;52.670;13.544;2023-06-01T04:34:14;8.07;;;5.63;;
21334;SDS011;69435;52.670;13.544;2023-06-01T04:36:40;10.67;;;6.40;;
21334;SDS011;69435;52.670;13.544;2023-06-01T04:39:06;7.50;;;5.67;;
21334;SDS011;69435;52.670;13.544;2023-06-01T04:41:32;10.13;;;6.40;;
21334;SDS011;69435;52.670;13.544;2023-06-01T04:44:00;10.97;;;6.07;;
21334;SDS011;69435;52.670;13.544;2023-06-01T04:46:31;13.10;;;7.87;;
21334;SDS011;69435;52.670;13.544;2023-06-01T04:48:57;8.63;;;7.03;;
21334;SDS011;69435;52.670;13.544;2023-06-01T04:51:25;13.17;;;7.20;;
21334;SDS011;69435;52.670;13.544;2023-06-01T04:53:53;13.47;;;7.20;;
21334;SDS011;69435;52.670;13.544;2023-06-01T04:56:20;12.67;;;7.83;;
21334;SDS011;69435;52.670;13.544;2023-06-01T04:58:49;8.20;;;7.37;;
21334;SDS011;69435;52.670;13.544;2023-06-01T05:01:16;8.80;;;7.37;;
21334;SDS011;69435;52.670;13.544;2023-06-01T05:03:43;12.60;;;7.53;;
21334;SDS011;69435;52.670;13.544;2023-06-01T05:06:11;13.97;;;7.50;;
21334;SDS011;69435;52.670;13.544;2023-06-01T05:08:38;10.43;;;7.10;;
21334;SDS011;69435;52.670;13.544;2023-06-01T05:11:05;13.40;;;7.70;;
21334;SDS011;69435;52.670;13.544;2023-06-01T05:13:36;11.07;;;7.60;;
21334;SDS011;69435;52.670;13.544;2023-06-01T05:16:04;10.00;;;6.90;;
21334;SDS011;69435;52.670;13.544;2023-06-01T05:18:32;14.90;;;7.37;;
21334;SDS011;69435;52.670;13.544;2023-06-01T05:20:58;13.83;;;7.70;;
21334;SDS011;69435;52.670;13.544;2023-06-01T05:23:25;12.03;;;6.90;;
21334;SDS011;69435;52.670;13.544;2023-06-01T05:25:52;13.67;;;7.27;;
21334;SDS011;69435;52.670;13.544;2023-06-01T05:28:30;14.30;;;7.53;;
21334;SDS011;69435;52.670;13.544;2023-06-01T05:30:57;7.33;;;6.57;;
21334;SDS011;69435;52.670;13.544;2023-06-01T05:33:23;12.43;;;7.30;;
21334;SDS011;69435;52.670;13.544;2023-06-01T05:35:50;14.23;;;7.53;;
21334;SDS011;69435;52.670;13.544;2023-06-01T05:38:16;9.50;;;7.10;;
21334;SDS011;69435;52.670;13.544;2023-06-01T05:40:43;7.27;;;6.40;;
21334;SDS011;69435;52.670;13.544;2023-06-01T05:43:10;11.03;;;6.40;;
21334;SDS011;69435;52.670;13.544;2023-06-01T05:45:36;7.70;;;6.30;;
21334;SDS011;69435;52.670;13.544;2023-06-01T05:48:03;12.17;;;6.27;;
21334;SDS011;69435;52.670;13.544;2023-06-01T05:50:29;11.67;;;6.50;;
21334;SDS011;69435;52.670;13.544;2023-06-01T05:52:55;7.63;;;6.10;;
21334;SDS011;69435;52.670;13.544;2023-06-01T05:55:21;10.07;;;6.17;;
21334;SDS011;69435;52.670;13.544;2023-06-01T05:57:46;12.10;;;6.63;;
21334;SDS011;69435;52.670;13.544;2023-06-01T06:00:12;11.47;;;6.23;;
21334;SDS011;69435;52.670;13.544;2023-06-01T06:02:43;9.23;;;5.70;;
21334;SDS011;69435;52.670;13.544;2023-06-01T06:05:09;10.60;;;5.97;;
21334;SDS011;69435;52.670;13.544;2023-06-01T06:07:35;7.47;;;5.67;;
21334;SDS011;69435;52.670;13.544;2023-06-01T06:10:01;7.70;;;5.47;;
21334;SDS011;69435;52.670;13.544;2023-06-01T06:12:28;6.93;;;4.93;;
21334;SDS011;69435;52.670;13.544;2023-06-01T06:14:54;9.20;;;4.87;;
21334;SDS011;69435;52.670;13.544;2023-06-01T06:17:21;7.20;;;4.87;;
21334;SDS011;69435;52.670;13.544;2023-06-01T06:19:48;8.63;;;5.10;;
21334;SDS011;69435;52.670;13.544;2023-06-01T06:22:15;7.80;;;4.80;;
21334;SDS011;69435;52.670;13.544;2023-06-01T06:24:40;7.63;;;4.80;;
21334;SDS011;69435;52.670;13.544;2023-06-01T06:27:08;9.27;;;4.93;;
21334;SDS011;69435;52.670;13.544;2023-06-01T06:29:34;5.37;;;4.60;;
21334;SDS011;69435;52.670;13.544;2023-06-01T06:32:00;13.17;;;4.83;;
21334;SDS011;69435;52.670;13.544;2023-06-01T06:34:26;6.27;;;4.87;;
21334;SDS011;69435;52.670;13.544;2023-06-01T06:36:52;13.93;;;5.27;;
21334;SDS011;69435;52.670;13.544;2023-06-01T06:39:18;8.83;;;4.80;;
21334;SDS011;69435;52.670;13.544;2023-06-01T06:41:44;7.37;;;5.03;;
21334;SDS011;69435;52.670;13.544;2023-06-01T06:44:10;7.83;;;4.40;;
21334;SDS011;69435;52.670;13.544;2023-06-01T06:46:36;7.37;;;4.80;;
21334;SDS011;69435;52.670;13.544;2023-06-01T06:49:01;8.50;;;5.03;;
21334;SDS011;69435;52.670;13.544;2023-06-01T06:51:28;8.20;;;4.63;;
21334;SDS011;69435;52.670;13.544;2023-06-01T06:53:54;9.80;;;4.33;;
21334;SDS011;69435;52.670;13.544;2023-06-01T06:56:19;9.63;;;4.67;;
21334;SDS011;69435;52.670;13.544;2023-06-01T06:58:46;7.57;;;4.50;;
21334;SDS011;69435;52.670;13.544;2023-06-01T07:01:12;8.83;;;4.77;;
21334;SDS011;69435;52.670;13.544;2023-06-01T07:03:38;7.60;;;4.80;;
21334;SDS011;69435;52.670;13.544;2023-06-01T07:06:05;8.53;;;4.60;;
21334;SDS011;69435;52.670;13.544;2023-06-01T07:08:31;8.43;;;5.00;;
21334;SDS011;69435;52.670;13.544;2023-06-01T07:11:02;9.20;;;4.83;;
21334;SDS011;69435;52.670;13.544;2023-06-01T07:13:29;11.10;;;4.93;;
21334;SDS011;69435;52.670;13.544;2023-06-01T07:15:55;9.83;;;5.37;;
21334;SDS011;69435;52.670;13.544;2023-06-01T07:18:21;8.80;;;5.07;;
21334;SDS011;69435;52.670;13.544;2023-06-01T07:20:47;7.40;;;4.87;;
21334;SDS011;69435;52.670;13.544;2023-06-01T07:23:13;9.07;;;4.53;;
21334;SDS011;69435;52.670;13.544;2023-06-01T07:25:40;7.80;;;4.57;;
21334;SDS011;69435;52.670;13.544;2023-06-01T07:28:06;9.20;;;4.63;;
21334;SDS011;69435;52.670;13.544;2023-06-01T07:30:34;8.80;;;4.53;;
21334;SDS011;69435;52.670;13.544;2023-06-01T07:33:00;11.83;;;4.57;;
21334;SDS011;69435;52.670;13.544;2023-06-01T07:35:28;9.60;;;4.10;;
21334;SDS011;69435;52.670;13.544;2023-06-01T07:37:54;6.07;;;4.70;;
21334;SDS011;69435;52.670;13.544;2023-06-01T07:40:21;4.27;;;3.83;;
21334;SDS011;69435;52.670;13.544;2023-06-01T07:42:47;8.43;;;3.77;;
21334;SDS011;69435;52.670;13.544;2023-06-01T07:45:12;6.43;;;3.90;;
21334;SDS011;69435;52.670;13.544;2023-06-01T07:47:38;9.10;;;3.90;;
21334;SDS011;69435;52.670;13.544;2023-06-01T07:50:04;11.83;;;4.67;;
21334;SDS011;69435;52.670;13.544;2023-06-01T07:52:31;4.83;;;4.30;;
21334;SDS011;69435;52.670;13.544;2023-06-01T07:54:58;9.60;;;4.37;;
21334;SDS011;69435;52.670;13.544;2023-06-01T07:57:23;6.33;;;3.97;;
21334;SDS011;69435;52.670;13.544;2023-06-01T07:59:51;10.20;;;4.00;;
21334;SDS011;69435;52.670;13.544;2023-06-01T08:02:17;4.10;;;3.70;;
21334;SDS011;69435;52.670;13.544;2023-06-01T08:04:43;4.10;;;3.53;;
21334;SDS011;69435;52.670;13.544;2023-06-01T08:07:09;4.82;;;3.53;;
21334;SDS011;69435;52.670;13.544;2023-06-01T08:09:37;4.88;;;4.20;;
21334;SDS011;69435;52.670;13.544;2023-06-01T08:12:03;9.35;;;4.40;;
21334;SDS011;69435;52.670;13.544;2023-06-01T08:14:31;7.80;;;4.00;;
21334;SDS011;69435;52.670;13.544;2023-06-01T08:16:59;11.98;;;4.70;;
21334;SDS011;69435;52.670;13.544;2023-06-01T08:19:27;7.95;;;3.50;;
21334;SDS011;69435;52.670;13.544;2023-06-01T08:21:53;5.43;;;3.35;;
21334;SDS011;69435;52.670;13.544;2023-06-01T08:24:20;5.20;;;4.10;;
21334;SDS011;69435;52.670;13.544;2023-06-01T08:26:48;6.45;;;3.78;;
21334;SDS011;69435;52.670;13.544;2023-06-01T08:29:14;6.03;;;3.70;;
21334;SDS011;69435;52.670;13.544;2023-06-01T08:31:39;6.63;;;3.63;;
21334;SDS011;69435;52.670;13.544;2023-06-01T08:34:06;6.72;;;3.88;;
21334;SDS011;69435;52.670;13.544;2023-06-01T08:36:32;7.57;;;3.67;;
21334;SDS011;69435;52.670;13.544;2023-06-01T08:38:58;5.70;;;3.72;;
21334;SDS011;69435;52.670;13.544;2023-06-01T08:44:38;4.57;;;3.75;;
21334;SDS011;69435;52.670;13.544;2023-06-01T08:47:07;4.47;;;3.58;;
21334;SDS011;69435;52.670;13.544;2023-06-01T08:49:34;5.68;;;4.28;;
21334;SDS011;69435;52.670;13.544;2023-06-01T08:52:02;4.70;;;3.65;;
21334;SDS011;69435;52.670;13.544;2023-06-01T08:54:33;5.30;;;3.17;;
21334;SDS011;69435;52.670;13.544;2023-06-01T08:57:00;4.80;;;3.30;;
21334;SDS011;69435;52.670;13.544;2023-06-01T08:59:35;5.55;;;3.50;;
21334;SDS011;69435;52.670;13.544;2023-06-01T09:02:02;4.88;;;3.53;;
21334;SDS011;69435;52.670;13.544;2023-06-01T09:04:28;7.85;;;3.47;;
21334;SDS011;69435;52.670;13.544;2023-06-01T09:06:57;7.32;;;3.55;;
21334;SDS011;69435;52.670;13.544;2023-06-01T09:09:23;3.72;;;3.20;;
21334;SDS011;69435;52.670;13.544;2023-06-01T09:12:14;6.63;;;3.42;;
21334;SDS011;69435;52.670;13.544;2023-06-01T09:17:35;7.93;;;3.15;;
21334;SDS011;69435;52.670;13.544;2023-06-01T09:20:02;6.55;;;4.00;;
21334;SDS011;69435;52.670;13.544;2023-06-01T09:22:45;6.90;;;3.70;;
21334;SDS011;69435;52.670;13.544;2023-06-01T09:25:12;4.80;;;3.70;;
21334;SDS011;69435;52.670;13.544;2023-06-01T09:30:14;6.80;;;3.53;;
21334;SDS011;69435;52.670;13.544;2023-06-01T09:32:42;37.33;;;5.82;;
21334;SDS011;69435;52.670;13.544;2023-06-01T09:35:13;7.30;;;4.75;;
21334;SDS011;69435;52.670;13.544;2023-06-01T09:37:39;6.22;;;3.85;;
21334;SDS011;69435;52.670;13.544;2023-06-01T09:40:23;5.38;;;3.88;;
21334;SDS011;69435;52.670;13.544;2023-06-01T09:42:48;9.13;;;3.30;;
21334;SDS011;69435;52.670;13.544;2023-06-01T09:45:19;4.10;;;3.25;;
21334;SDS011;69435;52.670;13.544;2023-06-01T09:47:48;3.92;;;3.47;;
21334;SDS011;69435;52.670;13.544;2023-06-01T09:53:04;12.25;;;3.60;;
21334;SDS011;69435;52.670;13.544;2023-06-01T09:55:33;5.90;;;3.30;;
21334;SDS011;69435;52.670;13.544;2023-06-01T10:00:46;4.10;;;3.30;;
21334;SDS011;69435;52.670;13.544;2023-06-01T10:03:16;4.88;;;3.60;;
21334;SDS011;69435;52.670;13.544;2023-06-01T10:05:44;6.82;;;4.22;;
21334;SDS011;69435;52.670;13.544;2023-06-01T10:08:12;4.53;;;3.60;;
21334;SDS011;69435;52.670;13.544;2023-06-01T10:10:41;7.30;;;3.75;;
21334;SDS011;69435;52.670;13.544;2023-06-01T10:13:11;6.65;;;3.80;;
21334;SDS011;69435;52.670;13.544;2023-06-01T10:15:38;7.53;;;3.45;;
21334;SDS011;69435;52.670;13.544;2023-06-01T10:18:04;6.85;;;3.45;;
21334;SDS011;69435;52.670;13.544;2023-06-01T10:20:32;4.78;;;3.40;;
21334;SDS011;69435;52.670;13.544;2023-06-01T10:23:02;5.88;;;3.97;;
21334;SDS011;69435;52.670;13.544;2023-06-01T10:25:30;3.88;;;3.38;;
21334;SDS011;69435;52.670;13.544;2023-06-01T10:28:04;5.65;;;3.63;;
21334;SDS011;69435;52.670;13.544;2023-06-01T10:30:33;4.38;;;3.25;;
21334;SDS011;69435;52.670;13.544;2023-06-01T10:33:02;5.50;;;3.50;;
21334;SDS011;69435;52.670;13.544;2023-06-01T10:40:40;4.32;;;3.20;;
21334;SDS011;69435;52.670;13.544;2023-06-01T10:46:23;3.90;;;3.50;;
21334;SDS011;69435;52.670;13.544;2023-06-01T10:49:02;6.07;;;3.20;;
21334;SDS011;69435;52.670;13.544;2023-06-01T10:51:30;4.10;;;3.70;;
21334;SDS011;69435;52.670;13.544;2023-06-01T10:54:23;7.47;;;3.78;;
21334;SDS011;69435;52.670;13.544;2023-06-01T11:02:47;4.35;;;3.22;;
21334;SDS011;69435;52.670;13.544;2023-06-01T11:18:59;6.65;;;3.72;;
21334;SDS011;69435;52.670;13.544;2023-06-01T11:21:38;4.38;;;3.72;;
21334;SDS011;69435;52.670;13.544;2023-06-01T11:24:12;4.70;;;3.55;;
21334;SDS011;69435;52.670;13.544;2023-06-01T11:26:41;6.78;;;4.00;;
21334;SDS011;69435;52.670;13.544;2023-06-01T11:31:52;5.07;;;3.83;;
21334;SDS011;69435;52.670;13.544;2023-06-01T11:34:54;4.38;;;3.97;;
21334;SDS011;69435;52.670;13.544;2023-06-01T11:37:14;7.13;;;4.13;;
21334;SDS011;69435;52.670;13.544;2023-06-01T11:39:43;4.88;;;4.38;;
21334;SDS011;69435;52.670;13.544;2023-06-01T11:42:14;4.43;;;4.03;;
21334;SDS011;69435;52.670;13.544;2023-06-01T11:45:06;5.18;;;4.20;;
21334;SDS011;69435;52.670;13.544;2023-06-01T11:47:32;5.05;;;4.20;;
21334;SDS011;69435;52.670;13.544;2023-06-01T11:50:00;5.07;;;3.60;;
21334;SDS011;69435;52.670;13.544;2023-06-01T11:52:25;5.38;;;3.80;;
21334;SDS011;69435;52.670;13.544;2023-06-01T11:54:52;4.65;;;4.07;;
21334;SDS011;69435;52.670;13.544;2023-06-01T11:57:18;9.13;;;4.30;;
21334;SDS011;69435;52.670;13.544;2023-06-01T11:59:49;5.10;;;4.28;;
21334;SDS011;69435;52.670;13.544;2023-06-01T12:02:25;4.50;;;3.78;;
21334;SDS011;69435;52.670;13.544;2023-06-01T12:04:57;3.95;;;3.60;;
21334;SDS011;69435;52.670;13.544;2023-06-01T12:07:43;10.52;;;3.97;;
21334;SDS011;69435;52.670;13.544;2023-06-01T12:10:12;9.40;;;4.38;;
21334;SDS011;69435;52.670;13.544;2023-06-01T12:12:42;6.43;;;3.78;;
21334;SDS011;69435;52.670;13.544;2023-06-01T12:15:10;6.60;;;4.32;;
21334;SDS011;69435;52.670;13.544;2023-06-01T12:17:53;5.85;;;4.15;;
21334;SDS011;69435;52.670;13.544;2023-06-01T12:20:25;6.88;;;4.45;;
21334;SDS011;69435;52.670;13.544;2023-06-01T12:25:49;4.82;;;3.95;;
21334;SDS011;69435;52.670;13.544;2023-06-01T12:28:17;7.63;;;4.68;;
21334;SDS011;69435;52.670;13.544;2023-06-01T12:30:44;4.65;;;4.22;;
21334;SDS011;69435;52.670;13.544;2023-06-01T12:35:59;5.88;;;4.38;;
21334;SDS011;69435;52.670;13.544;2023-06-01T12:38:26;6.50;;;4.90;;
21334;SDS011;69435;52.670;13.544;2023-06-01T12:41:09;6.40;;;4.65;;
21334;SDS011;69435;52.670;13.544;2023-06-01T12:43:37;5.50;;;4.53;;
21334;SDS011;69435;52.670;13.544;2023-06-01T12:46:04;9.35;;;4.82;;
21334;SDS011;69435;52.670;13.544;2023-06-01T12:48:31;5.43;;;4.63;;
21334;SDS011;69435;52.670;13.544;2023-06-01T12:50:59;5.88;;;4.68;;
21334;SDS011;69435;52.670;13.544;2023-06-01T12:53:26;6.38;;;4.72;;
21334;SDS011;69435;52.670;13.544;2023-06-01T12:55:54;7.97;;;5.00;;
21334;SDS011;69435;52.670;13.544;2023-06-01T12:58:20;5.00;;;4.57;;
21334;SDS011;69435;52.670;13.544;2023-06-01T13:00:46;11.68;;;5.18;;
21334;SDS011;69435;52.670;13.544;2023-06-01T13:03:12;5.55;;;5.05;;
21334;SDS011;69435;52.670;13.544;2023-06-01T13:05:42;5.90;;;5.20;;
21334;SDS011;69435;52.670;13.544;2023-06-01T13:08:13;5.57;;;4.47;;
21334;SDS011;69435;52.670;13.544;2023-06-01T13:10:39;8.95;;;4.35;;
21334;SDS011;69435;52.670;13.544;2023-06-01T13:13:06;7.28;;;5.80;;
21334;SDS011;69435;52.670;13.544;2023-06-01T13:15:33;8.98;;;4.70;;
21334;SDS011;69435;52.670;13.544;2023-06-01T13:18:01;11.00;;;5.47;;
21334;SDS011;69435;52.670;13.544;2023-06-01T13:20:28;8.80;;;4.88;;
21334;SDS011;69435;52.670;13.544;2023-06-01T13:22:53;6.32;;;4.82;;
21334;SDS011;69435;52.670;13.544;2023-06-01T13:25:20;5.05;;;4.57;;
21334;SDS011;69435;52.670;13.544;2023-06-01T13:27:45;5.70;;;4.82;;
21334;SDS011;69435;52.670;13.544;2023-06-01T13:30:11;11.73;;;5.13;;
21334;SDS011;69435;52.670;13.544;2023-06-01T13:32:38;5.43;;;4.93;;
21334;SDS011;69435;52.670;13.544;2023-06-01T13:35:04;5.55;;;4.93;;
21334;SDS011;69435;52.670;13.544;2023-06-01T13:37:31;7.97;;;4.82;;
21334;SDS011;69435;52.670;13.544;2023-06-01T13:39:57;8.35;;;5.32;;
21334;SDS011;69435;52.670;13.544;2023-06-01T13:42:23;6.80;;;4.68;;
21334;SDS011;69435;52.670;13.544;2023-06-01T13:44:49;9.45;;;4.80;;
21334;SDS011;69435;52.670;13.544;2023-06-01T13:47:15;7.28;;;4.47;;
21334;SDS011;69435;52.670;13.544;2023-06-01T13:49:41;6.20;;;4.78;;
21334;SDS011;69435;52.670;13.544;2023-06-01T13:52:09;4.93;;;4.43;;
21334;SDS011;69435;52.670;13.544;2023-06-01T13:54:35;7.75;;;4.28;;
21334;SDS011;69435;52.670;13.544;2023-06-01T13:57:02;7.47;;;4.90;;
21334;SDS011;69435;52.670;13.544;2023-06-01T13:59:28;5.93;;;4.45;;
21334;SDS011;69435;52.670;13.544;2023-06-01T14:01:56;7.00;;;4.60;;
21334;SDS011;69435;52.670;13.544;2023-06-01T14:04:22;5.63;;;4.93;;
21334;SDS011;69435;52.670;13.544;2023-06-01T14:06:48;11.88;;;5.28;;
21334;SDS011;69435;52.670;13.544;2023-06-01T14:09:17;6.30;;;5.47;;
21334;SDS011;69435;52.670;13.544;2023-06-01T14:11:44;8.10;;;4.82;;
21334;SDS011;69435;52.670;13.544;2023-06-01T14:14:10;8.77;;;5.05;;
21334;SDS011;69435;52.670;13.544;2023-06-01T14:16:37;5.30;;;4.80;;
21334;SDS011;69435;52.670;13.544;2023-06-01T14:19:03;7.32;;;4.82;;
21334;SDS011;69435;52.670;13.544;2023-06-01T14:21:29;7.03;;;4.50;;
21334;SDS011;69435;52.670;13.544;2023-06-01T14:23:56;6.68;;;4.78;;
21334;SDS011;69435;52.670;13.544;2023-06-01T14:26:22;6.70;;;4.78;;
21334;SDS011;69435;52.670;13.544;2023-06-01T14:28:49;20.63;;;5.53;;
21334;SDS011;69435;52.670;13.544;2023-06-01T14:31:15;7.28;;;4.85;;
21334;SDS011;69435;52.670;13.544;2023-06-01T14:33:41;8.60;;;4.72;;
21334;SDS011;69435;52.670;13.544;2023-06-01T14:36:07;6.25;;;4.78;;
21334;SDS011;69435;52.670;13.544;2023-06-01T14:38:33;7.72;;;5.18;;
21334;SDS011;69435;52.670;13.544;2023-06-01T14:40:59;6.82;;;4.45;;
21334;SDS011;69435;52.670;13.544;2023-06-01T14:43:25;6.03;;;4.50;;
21334;SDS011;69435;52.670;13.544;2023-06-01T14:45:51;10.25;;;5.20;;
21334;SDS011;69435;52.670;13.544;2023-06-01T14:48:17;6.20;;;4.68;;
21334;SDS011;69435;52.670;13.544;2023-06-01T14:50:43;5.55;;;4.88;;
21334;SDS011;69435;52.670;13.544;2023-06-01T14:53:09;9.68;;;5.25;;
21334;SDS011;69435;52.670;13.544;2023-06-01T14:55:35;5.60;;;4.47;;
21334;SDS011;69435;52.670;13.544;2023-06-01T14:58:01;8.30;;;5.05;;
21334;SDS011;69435;52.670;13.544;2023-06-01T15:00:27;6.70;;;4.88;;
21334;SDS011;69435;52.670;13.544;2023-06-01T15:02:53;9.07;;;4.70;;
21334;SDS011;69435;52.670;13.544;2023-06-01T15:05:19;5.38;;;4.88;;
21334;SDS011;69435;52.670;13.544;2023-06-01T15:07:45;5.88;;;4.32;;
21334;SDS011;69435;52.670;13.544;2023-06-01T15:10:11;5.20;;;4.70;;
21334;SDS011;69435;52.670;13.544;2023-06-01T15:12:40;7.55;;;4.60;;
21334;SDS011;69435;52.670;13.544;2023-06-01T15:15:07;9.32;;;4.88;;
21334;SDS011;69435;52.670;13.544;2023-06-01T15:17:33;6.05;;;4.65;;
21334;SDS011;69435;52.670;13.544;2023-06-01T15:19:59;8.00;;;4.78;;
21334;SDS011;69435;52.670;13.544;2023-06-01T15:22:24;8.30;;;4.40;;
21334;SDS011;69435;52.670;13.544;2023-06-01T15:24:50;11.40;;;5.72;;
21334;SDS011;69435;52.670;13.544;2023-06-01T15:27:16;6.18;;;4.53;;
21334;SDS011;69435;52.670;13.544;2023-06-01T15:29:45;6.28;;;4.45;;
21334;SDS011;69435;52.670;13.544;2023-06-01T15:32:11;10.25;;;4.22;;
21334;SDS011;69435;52.670;13.544;2023-06-01T15:34:37;7.72;;;4.30;;
21334;SDS011;69435;52.670;13.544;2023-06-01T15:37:13;10.50;;;5.40;;